sensor_id;sensor_type;location;lat;lon;timestamp;temperature;humidity
8178;DHT22;4130;48.740;9.132;2023-03-02T00:00:34;-1.90;99.90
8178;DHT22;4130;48.740;9.132;2023-03-02T00:03:02;-1.90;99.90
8178;DHT22;4130;48.740;9.132;2023-03-02T00:05:30;-1.90;99.90
8178;DHT22;4130;48.740;9.132;2023-03-02T00:07:59;-2.00;99.90
8178;DHT22;4130;48.740;9.132;2023-03-02T00:10:25;-2.00;99.90
8178;DHT22;4130;48.740;9.132;2023-03-02T00:12:52;-2.00;99.90
8178;DHT22;4130;48.740;9.132;2023-03-02T00:15:19;-2.00;99.90
8178;DHT22;4130;48.740;9.132;2023-03-02T00:17:46;-2.00;99.90
8178;DHT22;4130;48.740;9.132;2023-03-02T00:20:13;-2.10;99.90
8178;DHT22;4130;48.740;9.132;2023-03-02T00:22:41;-2.10;99.90
8178;DHT22;4130;48.740;9.132;2023-03-02T00:25:11;-2.10;99.90
8178;DHT22;4130;48.740;9.132;2023-03-02T00:27:38;-2.10;99.90
8178;DHT22;4130;48.740;9.132;2023-03-02T00:30:08;-2.10;99.90
8178;DHT22;4130;48.740;9.132;2023-03-02T00:32:34;-2.10;99.90
8178;DHT22;4130;48.740;9.132;2023-03-02T00:35:02;-2.20;99.90
8178;DHT22;4130;48.740;9.132;2023-03-02T00:37:28;-2.20;99.90
8178;DHT22;4130;48.740;9.132;2023-03-02T00:39:55;-2.20;99.90
8178;DHT22;4130;48.740;9.132;2023-03-02T00:42:23;-2.20;99.90
8178;DHT22;4130;48.740;9.132;2023-03-02T00:44:51;-2.30;99.90
8178;DHT22;4130;48.740;9.132;2023-03-02T00:47:17;-2.20;99.90
8178;DHT22;4130;48.740;9.132;2023-03-02T00:49:44;-2.20;99.90
8178;DHT22;4130;48.740;9.132;2023-03-02T00:52:14;-2.30;99.90
8178;DHT22;4130;48.740;9.132;2023-03-02T00:54:41;-2.20;99.90
8178;DHT22;4130;48.740;9.132;2023-03-02T00:57:08;-2.30;99.90
8178;DHT22;4130;48.740;9.132;2023-03-02T00:59:37;-2.30;99.90
8178;DHT22;4130;48.740;9.132;2023-03-02T01:02:04;-2.30;99.90
8178;DHT22;4130;48.740;9.132;2023-03-02T01:04:33;-2.30;99.90
8178;DHT22;4130;48.740;9.132;2023-03-02T01:07:01;-2.30;99.90
8178;DHT22;4130;48.740;9.132;2023-03-02T01:09:30;-2.30;99.90
8178;DHT22;4130;48.740;9.132;2023-03-02T01:11:57;-2.20;99.90
8178;DHT22;4130;48.740;9.132;2023-03-02T01:14:24;-2.20;99.90
8178;DHT22;4130;48.740;9.132;2023-03-02T01:16:52;-2.20;99.90
8178;DHT22;4130;48.740;9.132;2023-03-02T01:19:19;-2.20;99.90
8178;DHT22;4130;48.740;9.132;2023-03-02T01:21:46;-2.30;99.90
8178;DHT22;4130;48.740;9.132;2023-03-02T01:24:13;-2.20;99.90
8178;DHT22;4130;48.740;9.132;2023-03-02T01:26:39;-2.30;99.90
8178;DHT22;4130;48.740;9.132;2023-03-02T01:29:06;-2.30;99.90
8178;DHT22;4130;48.740;9.132;2023-03-02T01:31:33;-2.30;99.90
8178;DHT22;4130;48.740;9.132;2023-03-02T01:34:01;-2.30;99.90
8178;DHT22;4130;48.740;9.132;2023-03-02T01:36:28;-2.40;99.90
8178;DHT22;4130;48.740;9.132;2023-03-02T01:38:55;-2.40;99.90
8178;DHT22;4130;48.740;9.132;2023-03-02T01:41:22;-2.40;99.90
8178;DHT22;4130;48.740;9.132;2023-03-02T01:43:48;-2.40;99.90
8178;DHT22;4130;48.740;9.132;2023-03-02T01:46:17;-2.40;99.90
8178;DHT22;4130;48.740;9.132;2023-03-02T01:48:47;-2.50;99.90
8178;DHT22;4130;48.740;9.132;2023-03-02T01:51:19;-2.40;99.90
8178;DHT22;4130;48.740;9.132;2023-03-02T01:53:48;-2.50;99.90
8178;DHT22;4130;48.740;9.132;2023-03-02T01:56:18;-2.40;99.90
8178;DHT22;4130;48.740;9.132;2023-03-02T01:58:48;-2.50;99.90
8178;DHT22;4130;48.740;9.132;2023-03-02T02:01:16;-2.50;99.90
8178;DHT22;4130;48.740;9.132;2023-03-02T02:03:44;-2.50;99.90
8178;DHT22;4130;48.740;9.132;2023-03-02T02:06:18;-2.50;99.90
8178;DHT22;4130;48.740;9.132;2023-03-02T02:08:48;-2.50;99.90
8178;DHT22;4130;48.740;9.132;2023-03-02T02:11:15;-2.60;99.90
8178;DHT22;4130;48.740;9.132;2023-03-02T02:13:42;-2.50;99.90
8178;DHT22;4130;48.740;9.132;2023-03-02T02:16:09;-2.60;99.90
8178;DHT22;4130;48.740;9.132;2023-03-02T02:18:38;-2.60;99.90
8178;DHT22;4130;48.740;9.132;2023-03-02T02:21:06;-2.60;99.90
8178;DHT22;4130;48.740;9.132;2023-03-02T02:23:39;-2.60;99.90
8178;DHT22;4130;48.740;9.132;2023-03-02T02:26:16;-2.60;99.90
8178;DHT22;4130;48.740;9.132;2023-03-02T02:28:50;-2.60;99.90
8178;DHT22;4130;48.740;9.132;2023-03-02T02:31:25;-2.60;99.90
8178;DHT22;4130;48.740;9.132;2023-03-02T02:33:58;-2.60;99.90
8178;DHT22;4130;48.740;9.132;2023-03-02T02:36:30;-2.60;99.90
8178;DHT22;4130;48.740;9.132;2023-03-02T02:39:03;-2.70;99.90
8178;DHT22;4130;48.740;9.132;2023-03-02T02:41:37;-2.70;99.90
8178;DHT22;4130;48.740;9.132;2023-03-02T02:44:05;-2.70;99.90
8178;DHT22;4130;48.740;9.132;2023-03-02T02:46:32;-2.60;99.90
8178;DHT22;4130;48.740;9.132;2023-03-02T02:49:00;-2.70;99.90
8178;DHT22;4130;48.740;9.132;2023-03-02T02:51:28;-2.60;99.90
8178;DHT22;4130;48.740;9.132;2023-03-02T02:53:57;-2.70;99.90
8178;DHT22;4130;48.740;9.132;2023-03-02T02:56:26;-2.60;99.90
8178;DHT22;4130;48.740;9.132;2023-03-02T02:58:57;-2.70;99.90
8178;DHT22;4130;48.740;9.132;2023-03-02T03:01:26;-2.70;99.90
8178;DHT22;4130;48.740;9.132;2023-03-02T03:03:55;-2.70;99.90
8178;DHT22;4130;48.740;9.132;2023-03-02T03:06:24;-2.80;99.90
8178;DHT22;4130;48.740;9.132;2023-03-02T03:09:15;-2.80;99.90
8178;DHT22;4130;48.740;9.132;2023-03-02T03:11:44;-2.80;99.90
8178;DHT22;4130;48.740;9.132;2023-03-02T03:14:14;-2.80;99.90
8178;DHT22;4130;48.740;9.132;2023-03-02T03:16:42;-2.80;99.90
8178;DHT22;4130;48.740;9.132;2023-03-02T03:19:14;-2.80;99.90
8178;DHT22;4130;48.740;9.132;2023-03-02T03:21:42;-2.80;99.90
8178;DHT22;4130;48.740;9.132;2023-03-02T03:24:09;-2.80;99.90
8178;DHT22;4130;48.740;9.132;2023-03-02T03:26:36;-2.90;99.90
8178;DHT22;4130;48.740;9.132;2023-03-02T03:29:03;-2.80;99.90
8178;DHT22;4130;48.740;9.132;2023-03-02T03:31:31;-2.80;99.90
8178;DHT22;4130;48.740;9.132;2023-03-02T03:33:58;-2.90;99.90
8178;DHT22;4130;48.740;9.132;2023-03-02T03:36:26;-2.90;99.90
8178;DHT22;4130;48.740;9.132;2023-03-02T03:38:53;-2.90;99.90
8178;DHT22;4130;48.740;9.132;2023-03-02T03:41:20;-2.90;99.90
8178;DHT22;4130;48.740;9.132;2023-03-02T03:43:47;-2.90;99.90
8178;DHT22;4130;48.740;9.132;2023-03-02T03:46:14;-2.90;99.90
8178;DHT22;4130;48.740;9.132;2023-03-02T03:48:42;-2.90;99.90
8178;DHT22;4130;48.740;9.132;2023-03-02T03:51:09;-2.90;99.90
8178;DHT22;4130;48.740;9.132;2023-03-02T03:53:36;-2.90;99.90
8178;DHT22;4130;48.740;9.132;2023-03-02T03:56:03;-2.90;99.90
8178;DHT22;4130;48.740;9.132;2023-03-02T03:58:30;-2.90;99.90
8178;DHT22;4130;48.740;9.132;2023-03-02T04:00:58;-2.90;99.90
8178;DHT22;4130;48.740;9.132;2023-03-02T04:03:25;-2.90;99.90
8178;DHT22;4130;48.740;9.132;2023-03-02T04:05:53;-2.90;99.90
8178;DHT22;4130;48.740;9.132;2023-03-02T04:08:21;-2.90;99.90
8178;DHT22;4130;48.740;9.132;2023-03-02T04:10:48;-2.90;99.90
8178;DHT22;4130;48.740;9.132;2023-03-02T04:13:15;-2.90;99.90
8178;DHT22;4130;48.740;9.132;2023-03-02T04:15:41;-2.90;99.90
8178;DHT22;4130;48.740;9.132;2023-03-02T04:18:08;-2.90;99.90
8178;DHT22;4130;48.740;9.132;2023-03-02T04:20:35;-2.90;99.90
8178;DHT22;4130;48.740;9.132;2023-03-02T04:23:03;-3.00;99.90
8178;DHT22;4130;48.740;9.132;2023-03-02T04:25:30;-3.00;99.90
8178;DHT22;4130;48.740;9.132;2023-03-02T04:27:57;-3.00;99.90
8178;DHT22;4130;48.740;9.132;2023-03-02T04:30:25;-3.00;99.90
8178;DHT22;4130;48.740;9.132;2023-03-02T04:32:52;-3.00;99.90
8178;DHT22;4130;48.740;9.132;2023-03-02T04:35:22;-3.00;99.90
8178;DHT22;4130;48.740;9.132;2023-03-02T04:37:49;-3.10;99.90
8178;DHT22;4130;48.740;9.132;2023-03-02T04:40:18;-3.00;99.90
8178;DHT22;4130;48.740;9.132;2023-03-02T04:42:45;-3.00;99.90
8178;DHT22;4130;48.740;9.132;2023-03-02T04:45:12;-3.00;99.90
8178;DHT22;4130;48.740;9.132;2023-03-02T04:47:39;-3.00;99.90
8178;DHT22;4130;48.740;9.132;2023-03-02T04:50:07;-3.00;99.90
8178;DHT22;4130;48.740;9.132;2023-03-02T04:52:35;-3.00;99.90
8178;DHT22;4130;48.740;9.132;2023-03-02T04:55:02;-3.00;99.90
8178;DHT22;4130;48.740;9.132;2023-03-02T04:57:30;-3.00;99.90
8178;DHT22;4130;48.740;9.132;2023-03-02T04:59:57;-3.10;99.90
8178;DHT22;4130;48.740;9.132;2023-03-02T05:02:24;-3.10;99.90
8178;DHT22;4130;48.740;9.132;2023-03-02T05:04:50;-3.10;99.90
8178;DHT22;4130;48.740;9.132;2023-03-02T05:07:17;-3.10;99.90
8178;DHT22;4130;48.740;9.132;2023-03-02T05:09:44;-3.10;99.90
8178;DHT22;4130;48.740;9.132;2023-03-02T05:12:11;-3.20;99.90
8178;DHT22;4130;48.740;9.132;2023-03-02T05:14:39;-3.10;99.90
8178;DHT22;4130;48.740;9.132;2023-03-02T05:17:06;-3.10;99.90
8178;DHT22;4130;48.740;9.132;2023-03-02T05:19:33;-3.10;99.90
8178;DHT22;4130;48.740;9.132;2023-03-02T05:21:59;-3.00;99.90
8178;DHT22;4130;48.740;9.132;2023-03-02T05:24:26;-2.90;99.90
8178;DHT22;4130;48.740;9.132;2023-03-02T05:26:53;-2.80;99.90
8178;DHT22;4130;48.740;9.132;2023-03-02T05:29:20;-2.70;99.90
8178;DHT22;4130;48.740;9.132;2023-03-02T05:31:48;-2.50;99.90
8178;DHT22;4130;48.740;9.132;2023-03-02T05:34:16;-2.40;99.90
8178;DHT22;4130;48.740;9.132;2023-03-02T05:36:43;-2.30;99.90
8178;DHT22;4130;48.740;9.132;2023-03-02T05:39:10;-2.10;99.90
8178;DHT22;4130;48.740;9.132;2023-03-02T05:41:37;-2.00;99.90
8178;DHT22;4130;48.740;9.132;2023-03-02T05:44:05;-1.90;99.90
8178;DHT22;4130;48.740;9.132;2023-03-02T05:46:34;-1.80;99.90
8178;DHT22;4130;48.740;9.132;2023-03-02T05:49:02;-1.70;99.90
8178;DHT22;4130;48.740;9.132;2023-03-02T05:51:29;-1.70;99.90
8178;DHT22;4130;48.740;9.132;2023-03-02T05:53:55;-1.60;99.90
8178;DHT22;4130;48.740;9.132;2023-03-02T05:56:22;-1.50;99.90
8178;DHT22;4130;48.740;9.132;2023-03-02T05:58:49;-1.40;99.90
8178;DHT22;4130;48.740;9.132;2023-03-02T06:01:15;-1.40;99.90
8178;DHT22;4130;48.740;9.132;2023-03-02T06:03:42;-1.40;99.90
8178;DHT22;4130;48.740;9.132;2023-03-02T06:06:10;-1.30;99.90
8178;DHT22;4130;48.740;9.132;2023-03-02T06:08:38;-1.20;99.90
8178;DHT22;4130;48.740;9.132;2023-03-02T06:11:05;-1.20;99.90
8178;DHT22;4130;48.740;9.132;2023-03-02T06:13:32;-1.10;99.90
8178;DHT22;4130;48.740;9.132;2023-03-02T06:15:59;-1.10;99.90
8178;DHT22;4130;48.740;9.132;2023-03-02T06:18:26;-1.00;99.90
8178;DHT22;4130;48.740;9.132;2023-03-02T06:20:52;-1.00;99.90
8178;DHT22;4130;48.740;9.132;2023-03-02T06:23:20;-0.90;99.90
8178;DHT22;4130;48.740;9.132;2023-03-02T06:25:48;-0.90;99.90
8178;DHT22;4130;48.740;9.132;2023-03-02T06:28:14;-0.80;99.90
8178;DHT22;4130;48.740;9.132;2023-03-02T06:30:43;-0.80;99.90
8178;DHT22;4130;48.740;9.132;2023-03-02T06:33:10;-0.80;99.90
8178;DHT22;4130;48.740;9.132;2023-03-02T06:35:37;-0.80;99.90
8178;DHT22;4130;48.740;9.132;2023-03-02T06:38:03;-0.70;99.90
8178;DHT22;4130;48.740;9.132;2023-03-02T06:40:32;-0.70;99.90
8178;DHT22;4130;48.740;9.132;2023-03-02T06:42:58;-0.60;99.90
8178;DHT22;4130;48.740;9.132;2023-03-02T06:45:25;-0.60;99.90
8178;DHT22;4130;48.740;9.132;2023-03-02T06:47:53;-0.60;99.90
8178;DHT22;4130;48.740;9.132;2023-03-02T06:50:20;-0.50;99.90
8178;DHT22;4130;48.740;9.132;2023-03-02T06:52:47;-0.40;99.90
8178;DHT22;4130;48.740;9.132;2023-03-02T06:55:14;-0.30;99.90
8178;DHT22;4130;48.740;9.132;2023-03-02T06:57:42;-0.30;99.90
8178;DHT22;4130;48.740;9.132;2023-03-02T07:00:10;-0.30;99.90
8178;DHT22;4130;48.740;9.132;2023-03-02T07:02:41;-0.20;99.90
8178;DHT22;4130;48.740;9.132;2023-03-02T07:05:08;-0.10;99.90
8178;DHT22;4130;48.740;9.132;2023-03-02T07:07:35;-0.10;99.90
8178;DHT22;4130;48.740;9.132;2023-03-02T07:10:02;0.00;99.90
8178;DHT22;4130;48.740;9.132;2023-03-02T07:12:29;0.10;99.90
8178;DHT22;4130;48.740;9.132;2023-03-02T07:14:57;0.10;99.90
8178;DHT22;4130;48.740;9.132;2023-03-02T07:17:24;0.10;99.90
8178;DHT22;4130;48.740;9.132;2023-03-02T07:19:51;0.30;99.90
8178;DHT22;4130;48.740;9.132;2023-03-02T07:22:17;0.30;99.90
8178;DHT22;4130;48.740;9.132;2023-03-02T07:24:44;0.40;99.90
8178;DHT22;4130;48.740;9.132;2023-03-02T07:27:11;0.40;99.90
8178;DHT22;4130;48.740;9.132;2023-03-02T07:29:38;0.50;99.90
8178;DHT22;4130;48.740;9.132;2023-03-02T07:32:06;0.60;99.90
8178;DHT22;4130;48.740;9.132;2023-03-02T07:34:33;0.70;99.90
8178;DHT22;4130;48.740;9.132;2023-03-02T07:36:59;0.80;99.90
8178;DHT22;4130;48.740;9.132;2023-03-02T07:39:26;0.80;99.90
8178;DHT22;4130;48.740;9.132;2023-03-02T07:41:56;0.90;99.90
8178;DHT22;4130;48.740;9.132;2023-03-02T07:44:23;1.00;99.90
8178;DHT22;4130;48.740;9.132;2023-03-02T07:46:50;1.10;99.90
8178;DHT22;4130;48.740;9.132;2023-03-02T07:49:18;1.10;99.90
8178;DHT22;4130;48.740;9.132;2023-03-02T07:51:45;1.30;99.90
8178;DHT22;4130;48.740;9.132;2023-03-02T07:54:12;1.30;99.90
8178;DHT22;4130;48.740;9.132;2023-03-02T07:56:39;1.40;99.90
8178;DHT22;4130;48.740;9.132;2023-03-02T07:59:05;1.50;99.90
8178;DHT22;4130;48.740;9.132;2023-03-02T08:01:32;1.60;99.90
8178;DHT22;4130;48.740;9.132;2023-03-02T08:03:59;1.60;99.90
8178;DHT22;4130;48.740;9.132;2023-03-02T08:06:27;1.80;99.90
8178;DHT22;4130;48.740;9.132;2023-03-02T08:08:54;1.80;99.90
8178;DHT22;4130;48.740;9.132;2023-03-02T08:11:21;2.00;99.90
8178;DHT22;4130;48.740;9.132;2023-03-02T08:13:47;2.00;99.90
8178;DHT22;4130;48.740;9.132;2023-03-02T08:16:15;2.00;99.90
8178;DHT22;4130;48.740;9.132;2023-03-02T08:18:42;2.00;99.90
8178;DHT22;4130;48.740;9.132;2023-03-02T08:21:14;2.10;99.90
8178;DHT22;4130;48.740;9.132;2023-03-02T08:23:43;2.10;99.90
8178;DHT22;4130;48.740;9.132;2023-03-02T08:26:11;2.10;99.90
8178;DHT22;4130;48.740;9.132;2023-03-02T08:28:38;2.20;99.90
8178;DHT22;4130;48.740;9.132;2023-03-02T08:31:06;2.20;99.90
8178;DHT22;4130;48.740;9.132;2023-03-02T08:33:33;2.20;99.90
8178;DHT22;4130;48.740;9.132;2023-03-02T08:36:02;2.30;99.90
8178;DHT22;4130;48.740;9.132;2023-03-02T08:38:30;2.30;99.90
8178;DHT22;4130;48.740;9.132;2023-03-02T08:41:02;2.30;99.90
8178;DHT22;4130;48.740;9.132;2023-03-02T08:43:29;2.50;99.90
8178;DHT22;4130;48.740;9.132;2023-03-02T08:45:56;2.60;99.90
8178;DHT22;4130;48.740;9.132;2023-03-02T08:48:23;2.70;99.90
8178;DHT22;4130;48.740;9.132;2023-03-02T08:50:55;2.70;99.90
8178;DHT22;4130;48.740;9.132;2023-03-02T08:53:22;2.80;99.90
8178;DHT22;4130;48.740;9.132;2023-03-02T08:55:48;3.00;99.90
8178;DHT22;4130;48.740;9.132;2023-03-02T08:58:17;3.00;99.90
8178;DHT22;4130;48.740;9.132;2023-03-02T09:00:44;3.20;99.90
8178;DHT22;4130;48.740;9.132;2023-03-02T09:03:11;3.30;99.90
8178;DHT22;4130;48.740;9.132;2023-03-02T09:05:38;3.50;99.90
8178;DHT22;4130;48.740;9.132;2023-03-02T09:08:05;3.60;99.90
8178;DHT22;4130;48.740;9.132;2023-03-02T09:10:32;3.70;99.90
8178;DHT22;4130;48.740;9.132;2023-03-02T09:12:59;3.80;99.90
8178;DHT22;4130;48.740;9.132;2023-03-02T09:15:27;4.00;99.90
8178;DHT22;4130;48.740;9.132;2023-03-02T09:17:54;4.20;99.90
8178;DHT22;4130;48.740;9.132;2023-03-02T09:20:20;4.30;99.90
8178;DHT22;4130;48.740;9.132;2023-03-02T09:22:47;4.30;99.90
8178;DHT22;4130;48.740;9.132;2023-03-02T09:25:16;4.30;99.90
8178;DHT22;4130;48.740;9.132;2023-03-02T09:27:44;4.30;99.90
8178;DHT22;4130;48.740;9.132;2023-03-02T09:30:12;4.40;99.90
8178;DHT22;4130;48.740;9.132;2023-03-02T09:32:41;4.60;99.90
8178;DHT22;4130;48.740;9.132;2023-03-02T09:35:08;6.20;99.90
8178;DHT22;4130;48.740;9.132;2023-03-02T09:37:34;4.80;99.90
8178;DHT22;4130;48.740;9.132;2023-03-02T09:40:08;4.80;99.90
8178;DHT22;4130;48.740;9.132;2023-03-02T09:43:05;4.90;99.90
8178;DHT22;4130;48.740;9.132;2023-03-02T09:45:57;4.80;99.90
8178;DHT22;4130;48.740;9.132;2023-03-02T09:48:36;4.80;99.90
8178;DHT22;4130;48.740;9.132;2023-03-02T09:51:14;4.90;99.90
8178;DHT22;4130;48.740;9.132;2023-03-02T09:53:50;5.10;99.90
8178;DHT22;4130;48.740;9.132;2023-03-02T09:56:19;5.20;99.90
8178;DHT22;4130;48.740;9.132;2023-03-02T09:58:51;5.40;99.90
8178;DHT22;4130;48.740;9.132;2023-03-02T10:01:28;5.50;99.90
8178;DHT22;4130;48.740;9.132;2023-03-02T10:04:05;5.50;99.90
8178;DHT22;4130;48.740;9.132;2023-03-02T10:06:34;5.70;99.90
8178;DHT22;4130;48.740;9.132;2023-03-02T10:09:01;5.80;99.90
8178;DHT22;4130;48.740;9.132;2023-03-02T10:11:35;5.80;99.90
8178;DHT22;4130;48.740;9.132;2023-03-02T10:14:07;5.90;99.90
8178;DHT22;4130;48.740;9.132;2023-03-02T10:16:42;6.00;99.90
8178;DHT22;4130;48.740;9.132;2023-03-02T10:19:19;6.20;99.90
8178;DHT22;4130;48.740;9.132;2023-03-02T10:21:55;6.20;99.90
8178;DHT22;4130;48.740;9.132;2023-03-02T10:24:28;6.20;99.90
8178;DHT22;4130;48.740;9.132;2023-03-02T10:26:58;6.20;99.90
8178;DHT22;4130;48.740;9.132;2023-03-02T10:29:44;6.10;99.90
8178;DHT22;4130;48.740;9.132;2023-03-02T10:32:18;6.00;99.90
8178;DHT22;4130;48.740;9.132;2023-03-02T10:34:47;6.00;99.90
8178;DHT22;4130;48.740;9.132;2023-03-02T10:37:16;6.10;99.90
8178;DHT22;4130;48.740;9.132;2023-03-02T10:39:46;6.20;99.90
8178;DHT22;4130;48.740;9.132;2023-03-02T10:42:16;6.30;99.90
8178;DHT22;4130;48.740;9.132;2023-03-02T10:44:47;6.30;99.90
8178;DHT22;4130;48.740;9.132;2023-03-02T10:47:22;6.20;99.90
8178;DHT22;4130;48.740;9.132;2023-03-02T10:49:51;6.50;99.90
8178;DHT22;4130;48.740;9.132;2023-03-02T10:52:20;6.60;99.90
8178;DHT22;4130;48.740;9.132;2023-03-02T10:54:47;6.80;99.90
8178;DHT22;4130;48.740;9.132;2023-03-02T10:57:27;6.90;99.90
8178;DHT22;4130;48.740;9.132;2023-03-02T10:59:58;7.20;99.90
8178;DHT22;4130;48.740;9.132;2023-03-02T11:02:27;7.20;99.90
8178;DHT22;4130;48.740;9.132;2023-03-02T11:04:57;7.10;99.90
8178;DHT22;4130;48.740;9.132;2023-03-02T11:07:26;6.90;99.90
8178;DHT22;4130;48.740;9.132;2023-03-02T11:09:57;6.70;99.90
8178;DHT22;4130;48.740;9.132;2023-03-02T11:12:24;6.60;99.90
8178;DHT22;4130;48.740;9.132;2023-03-02T11:15:01;6.40;99.90
8178;DHT22;4130;48.740;9.132;2023-03-02T11:17:31;6.40;99.90
8178;DHT22;4130;48.740;9.132;2023-03-02T11:20:00;6.20;99.90
8178;DHT22;4130;48.740;9.132;2023-03-02T11:22:33;6.10;99.90
8178;DHT22;4130;48.740;9.132;2023-03-02T11:25:05;6.30;99.90
8178;DHT22;4130;48.740;9.132;2023-03-02T11:27:35;6.20;99.90
8178;DHT22;4130;48.740;9.132;2023-03-02T11:30:10;6.20;99.90
8178;DHT22;4130;48.740;9.132;2023-03-02T11:32:43;6.20;99.90
8178;DHT22;4130;48.740;9.132;2023-03-02T11:35:28;6.10;99.90
8178;DHT22;4130;48.740;9.132;2023-03-02T11:38:02;6.30;99.90
8178;DHT22;4130;48.740;9.132;2023-03-02T11:40:33;6.60;99.90
8178;DHT22;4130;48.740;9.132;2023-03-02T11:43:01;6.50;99.90
8178;DHT22;4130;48.740;9.132;2023-03-02T11:45:33;6.30;99.90
8178;DHT22;4130;48.740;9.132;2023-03-02T11:48:04;6.30;99.90
8178;DHT22;4130;48.740;9.132;2023-03-02T11:50:48;6.20;99.90
8178;DHT22;4130;48.740;9.132;2023-03-02T11:53:18;6.10;99.90
8178;DHT22;4130;48.740;9.132;2023-03-02T11:55:47;6.30;99.90
8178;DHT22;4130;48.740;9.132;2023-03-02T11:58:17;6.70;99.90
8178;DHT22;4130;48.740;9.132;2023-03-02T12:00:46;7.10;99.90
8178;DHT22;4130;48.740;9.132;2023-03-02T12:03:23;7.40;99.90
8178;DHT22;4130;48.740;9.132;2023-03-02T12:06:05;7.50;99.90
8178;DHT22;4130;48.740;9.132;2023-03-02T12:08:37;7.80;99.90
8178;DHT22;4130;48.740;9.132;2023-03-02T12:11:07;8.00;99.90
8178;DHT22;4130;48.740;9.132;2023-03-02T12:13:36;8.20;99.90
8178;DHT22;4130;48.740;9.132;2023-03-02T12:16:03;8.40;99.90
8178;DHT22;4130;48.740;9.132;2023-03-02T12:18:43;8.50;99.90
8178;DHT22;4130;48.740;9.132;2023-03-02T12:21:17;8.50;99.90
8178;DHT22;4130;48.740;9.132;2023-03-02T12:23:59;8.40;99.90
8178;DHT22;4130;48.740;9.132;2023-03-02T12:26:33;8.40;99.90
8178;DHT22;4130;48.740;9.132;2023-03-02T12:29:04;8.50;99.90
8178;DHT22;4130;48.740;9.132;2023-03-02T12:31:40;8.60;99.90
8178;DHT22;4130;48.740;9.132;2023-03-02T12:34:26;8.50;99.90
8178;DHT22;4130;48.740;9.132;2023-03-02T12:37:10;8.40;99.90
8178;DHT22;4130;48.740;9.132;2023-03-02T12:42:49;8.30;99.90
8178;DHT22;4130;48.740;9.132;2023-03-02T12:45:28;8.40;99.90
8178;DHT22;4130;48.740;9.132;2023-03-02T12:48:13;8.60;99.90
8178;DHT22;4130;48.740;9.132;2023-03-02T12:50:46;8.90;99.90
8178;DHT22;4130;48.740;9.132;2023-03-02T12:53:18;9.00;99.90
8178;DHT22;4130;48.740;9.132;2023-03-02T12:55:45;9.10;99.90
8178;DHT22;4130;48.740;9.132;2023-03-02T12:58:16;9.10;99.90
8178;DHT22;4130;48.740;9.132;2023-03-02T13:00:49;9.00;99.90
8178;DHT22;4130;48.740;9.132;2023-03-02T13:03:16;8.90;99.90
8178;DHT22;4130;48.740;9.132;2023-03-02T13:05:43;8.90;99.90
8178;DHT22;4130;48.740;9.132;2023-03-02T13:08:16;9.10;99.90
8178;DHT22;4130;48.740;9.132;2023-03-02T13:10:48;9.30;99.90
8178;DHT22;4130;48.740;9.132;2023-03-02T13:13:18;9.30;99.90
8178;DHT22;4130;48.740;9.132;2023-03-02T13:15:54;9.30;99.90
8178;DHT22;4130;48.740;9.132;2023-03-02T13:18:23;9.50;99.90
8178;DHT22;4130;48.740;9.132;2023-03-02T13:20:51;9.40;99.90
8178;DHT22;4130;48.740;9.132;2023-03-02T13:23:19;9.50;99.90
8178;DHT22;4130;48.740;9.132;2023-03-02T13:25:47;9.50;99.60
8178;DHT22;4130;48.740;9.132;2023-03-02T13:28:26;9.40;99.70
8178;DHT22;4130;48.740;9.132;2023-03-02T13:30:58;9.50;99.90
8178;DHT22;4130;48.740;9.132;2023-03-02T13:33:26;9.50;99.90
8178;DHT22;4130;48.740;9.132;2023-03-02T13:35:53;9.60;99.90
8178;DHT22;4130;48.740;9.132;2023-03-02T13:38:23;9.60;99.30
8178;DHT22;4130;48.740;9.132;2023-03-02T13:40:52;9.60;99.10
8178;DHT22;4130;48.740;9.132;2023-03-02T13:43:33;9.50;99.10
8178;DHT22;4130;48.740;9.132;2023-03-02T13:46:01;9.50;99.20
8178;DHT22;4130;48.740;9.132;2023-03-02T13:48:29;9.40;98.90
8178;DHT22;4130;48.740;9.132;2023-03-02T13:50:58;9.50;99.10
8178;DHT22;4130;48.740;9.132;2023-03-02T13:53:28;9.40;99.40
8178;DHT22;4130;48.740;9.132;2023-03-02T13:55:56;9.50;99.70
8178;DHT22;4130;48.740;9.132;2023-03-02T13:58:25;9.60;99.40
8178;DHT22;4130;48.740;9.132;2023-03-02T14:00:54;9.60;99.20
8178;DHT22;4130;48.740;9.132;2023-03-02T14:03:24;9.60;99.00
8178;DHT22;4130;48.740;9.132;2023-03-02T14:05:52;9.70;99.00
8178;DHT22;4130;48.740;9.132;2023-03-02T14:08:18;9.70;99.40
8178;DHT22;4130;48.740;9.132;2023-03-02T14:10:47;9.70;99.10
8178;DHT22;4130;48.740;9.132;2023-03-02T14:13:17;9.50;99.10
8178;DHT22;4130;48.740;9.132;2023-03-02T14:15:47;9.50;98.80
8178;DHT22;4130;48.740;9.132;2023-03-02T14:18:27;9.30;98.60
8178;DHT22;4130;48.740;9.132;2023-03-02T14:20:55;9.20;98.60
8178;DHT22;4130;48.740;9.132;2023-03-02T14:23:22;9.10;98.90
8178;DHT22;4130;48.740;9.132;2023-03-02T14:25:51;8.90;98.90
8178;DHT22;4130;48.740;9.132;2023-03-02T14:28:24;8.80;99.30
8178;DHT22;4130;48.740;9.132;2023-03-02T14:30:53;8.60;99.40
8178;DHT22;4130;48.740;9.132;2023-03-02T14:33:21;8.50;99.80
8178;DHT22;4130;48.740;9.132;2023-03-02T14:35:48;8.40;99.90
8178;DHT22;4130;48.740;9.132;2023-03-02T14:38:16;8.40;99.90
8178;DHT22;4130;48.740;9.132;2023-03-02T14:40:43;8.50;99.90
8178;DHT22;4130;48.740;9.132;2023-03-02T14:43:11;8.70;99.90
8178;DHT22;4130;48.740;9.132;2023-03-02T14:45:37;8.80;99.50
8178;DHT22;4130;48.740;9.132;2023-03-02T14:48:04;8.90;99.60
8178;DHT22;4130;48.740;9.132;2023-03-02T14:50:37;9.00;99.60
8178;DHT22;4130;48.740;9.132;2023-03-02T14:53:06;9.00;99.30
8178;DHT22;4130;48.740;9.132;2023-03-02T14:55:36;9.10;99.50
8178;DHT22;4130;48.740;9.132;2023-03-02T14:58:10;9.20;99.70
8178;DHT22;4130;48.740;9.132;2023-03-02T15:00:40;9.20;99.20
8178;DHT22;4130;48.740;9.132;2023-03-02T15:03:11;9.40;99.10
8178;DHT22;4130;48.740;9.132;2023-03-02T15:05:38;9.70;99.20
8178;DHT22;4130;48.740;9.132;2023-03-02T15:08:08;10.00;98.20
8178;DHT22;4130;48.740;9.132;2023-03-02T15:10:34;10.00;98.40
8178;DHT22;4130;48.740;9.132;2023-03-02T15:13:04;10.00;98.00
8178;DHT22;4130;48.740;9.132;2023-03-02T15:15:31;9.80;98.40
8178;DHT22;4130;48.740;9.132;2023-03-02T15:17:59;9.70;98.70
8178;DHT22;4130;48.740;9.132;2023-03-02T15:20:25;9.60;98.40
8178;DHT22;4130;48.740;9.132;2023-03-02T15:22:53;9.50;98.50
8178;DHT22;4130;48.740;9.132;2023-03-02T15:25:20;9.50;98.90
8178;DHT22;4130;48.740;9.132;2023-03-02T15:27:48;9.30;98.90
8178;DHT22;4130;48.740;9.132;2023-03-02T15:30:15;9.20;99.00
8178;DHT22;4130;48.740;9.132;2023-03-02T15:32:42;9.20;99.10
8178;DHT22;4130;48.740;9.132;2023-03-02T15:35:10;9.20;99.00
8178;DHT22;4130;48.740;9.132;2023-03-02T15:37:37;9.20;99.20
8178;DHT22;4130;48.740;9.132;2023-03-02T15:40:05;9.00;99.10
8178;DHT22;4130;48.740;9.132;2023-03-02T15:42:32;9.10;98.90
8178;DHT22;4130;48.740;9.132;2023-03-02T15:44:59;9.00;98.80
8178;DHT22;4130;48.740;9.132;2023-03-02T15:47:26;9.00;99.10
8178;DHT22;4130;48.740;9.132;2023-03-02T15:49:52;9.00;99.00
8178;DHT22;4130;48.740;9.132;2023-03-02T15:52:20;8.90;99.40
8178;DHT22;4130;48.740;9.132;2023-03-02T15:54:47;8.80;99.50
8178;DHT22;4130;48.740;9.132;2023-03-02T15:57:14;8.70;99.30
8178;DHT22;4130;48.740;9.132;2023-03-02T15:59:42;8.70;99.30
8178;DHT22;4130;48.740;9.132;2023-03-02T16:02:10;8.60;99.30
8178;DHT22;4130;48.740;9.132;2023-03-02T16:04:37;8.50;99.40
8178;DHT22;4130;48.740;9.132;2023-03-02T16:07:04;8.50;99.30
8178;DHT22;4130;48.740;9.132;2023-03-02T16:09:32;8.50;99.50
8178;DHT22;4130;48.740;9.132;2023-03-02T16:11:59;8.40;99.60
8178;DHT22;4130;48.740;9.132;2023-03-02T16:14:26;8.30;99.40
8178;DHT22;4130;48.740;9.132;2023-03-02T16:16:52;8.30;99.60
8178;DHT22;4130;48.740;9.132;2023-03-02T16:19:19;8.20;99.90
8178;DHT22;4130;48.740;9.132;2023-03-02T16:21:46;8.20;99.70
8178;DHT22;4130;48.740;9.132;2023-03-02T16:24:13;8.10;99.60